createdAt,value
2019-05-09T00:00:44.876Z,4.78
2019-05-09T00:03:13.948Z,5.80
2019-05-09T00:05:44.140Z,5.40
2019-05-09T00:08:13.928Z,5.72
2019-05-09T00:10:44.972Z,5.20
2019-05-09T00:13:13.832Z,4.65
2019-05-09T00:15:43.726Z,4.37
2019-05-09T00:18:14.235Z,6.50
2019-05-09T00:20:44.644Z,6.28
2019-05-09T00:23:13.661Z,6.08
2019-05-09T00:25:43.280Z,9.10
2019-05-09T00:28:13.536Z,7.15
2019-05-09T00:30:55.990Z,8.00
2019-05-09T00:33:34.279Z,4.75
2019-05-09T00:36:04.229Z,5.12
2019-05-09T00:38:43.431Z,6.30
2019-05-09T00:41:14.009Z,5.83
2019-05-09T00:43:44.617Z,5.90
2019-05-09T00:46:17.833Z,4.60
2019-05-09T00:48:53.986Z,6.45
2019-05-09T00:51:23.323Z,4.10
2019-05-09T00:53:53.639Z,6.25
2019-05-09T00:56:23.982Z,5.58
2019-05-09T00:58:53.726Z,5.28
2019-05-09T01:01:24.001Z,6.90
2019-05-09T01:03:53.771Z,5.00
2019-05-09T01:06:24.055Z,6.92
2019-05-09T01:08:53.806Z,5.42
2019-05-09T01:11:24.269Z,4.85
2019-05-09T01:13:54.316Z,4.90
2019-05-09T01:16:24.107Z,4.58
2019-05-09T01:18:54.440Z,5.25
2019-05-09T01:21:24.156Z,5.40
2019-05-09T01:23:53.993Z,4.40
2019-05-09T01:26:23.936Z,4.80
2019-05-09T01:28:53.996Z,7.47
2019-05-09T01:31:24.094Z,11.15
2019-05-09T01:34:00.920Z,4.62
2019-05-09T01:36:47.749Z,4.30
2019-05-09T01:39:16.524Z,5.60
2019-05-09T01:41:45.188Z,8.25
2019-05-09T01:44:13.913Z,11.22
2019-05-09T01:46:43.622Z,6.12
2019-05-09T01:49:13.879Z,5.53
2019-05-09T01:51:44.494Z,5.03
2019-05-09T01:54:14.393Z,6.87
2019-05-09T01:56:43.188Z,5.90
2019-05-09T01:59:13.710Z,5.80
2019-05-09T02:01:43.439Z,6.33
2019-05-09T02:04:13.689Z,5.37
2019-05-09T02:06:44.032Z,7.55
2019-05-09T02:09:14.032Z,7.95
2019-05-09T02:11:45.614Z,6.35
2019-05-09T02:14:15.636Z,7.45
2019-05-09T02:16:46.009Z,7.62
2019-05-09T02:19:16.294Z,9.68
2019-05-09T02:21:44.945Z,7.10
2019-05-09T02:24:14.206Z,10.20
2019-05-09T02:26:43.868Z,5.12
2019-05-09T02:29:13.896Z,6.15
2019-05-09T02:31:44.575Z,6.60
2019-05-09T02:34:14.786Z,5.08
2019-05-09T02:36:43.416Z,6.22
2019-05-09T02:39:12.079Z,6.08
2019-05-09T02:41:59.013Z,6.55
2019-05-09T02:44:11.110Z,9.45
2019-05-09T02:46:41.390Z,4.62
2019-05-09T02:49:10.102Z,6.30
2019-05-09T02:51:39.079Z,5.42
2019-05-09T02:54:09.764Z,5.12
2019-05-09T02:56:38.683Z,7.75
2019-05-09T02:59:11.876Z,7.33
2019-05-09T03:01:44.788Z,8.15
2019-05-09T03:04:13.450Z,8.28
2019-05-09T03:06:42.178Z,6.92
2019-05-09T03:09:10.829Z,4.80
2019-05-09T03:11:39.617Z,9.20
2019-05-09T03:14:09.117Z,5.97
2019-05-09T03:16:39.830Z,4.83
2019-05-09T03:19:09.287Z,5.67
2019-05-09T03:21:42.405Z,6.05
2019-05-09T03:24:11.127Z,4.37
2019-05-09T03:26:41.421Z,5.28
2019-05-09T03:29:19.050Z,6.72
2019-05-09T03:31:50.010Z,8.20
2019-05-09T03:34:19.751Z,7.53
2019-05-09T03:36:48.550Z,7.28
2019-05-09T03:39:18.492Z,5.90
2019-05-09T03:41:48.686Z,6.35
2019-05-09T03:44:17.956Z,5.62
2019-05-09T03:46:50.831Z,5.90
2019-05-09T03:49:24.067Z,7.47
2019-05-09T03:51:52.789Z,5.50
2019-05-09T03:54:21.514Z,6.97
2019-05-09T03:56:54.540Z,5.90
2019-05-09T03:59:23.177Z,5.30
2019-05-09T04:01:51.843Z,6.72
2019-05-09T04:04:20.509Z,6.85
2019-05-09T04:06:49.170Z,7.45
2019-05-09T04:09:18.078Z,6.12
2019-05-09T04:11:48.569Z,9.43
2019-05-09T04:14:21.498Z,7.60
2019-05-09T04:16:49.302Z,4.60
2019-05-09T04:19:18.029Z,5.90
2019-05-09T04:21:48.411Z,6.15
2019-05-09T04:24:17.681Z,7.80
2019-05-09T04:27:00.199Z,5.95
2019-05-09T04:29:28.917Z,8.45
2019-05-09T04:31:57.676Z,4.97
2019-05-09T04:34:27.516Z,7.10
2019-05-09T04:36:57.671Z,6.30
2019-05-09T04:39:28.222Z,7.20
2019-05-09T04:42:03.447Z,8.58
2019-05-09T04:44:32.396Z,15.63
2019-05-09T04:47:03.581Z,8.05
2019-05-09T04:49:39.569Z,7.30
2019-05-09T04:52:01.725Z,8.00
2019-05-09T04:54:30.472Z,5.58
2019-05-09T04:56:59.179Z,8.68
2019-05-09T04:59:31.898Z,11.53
2019-05-09T05:02:18.710Z,6.15
2019-05-09T05:04:47.931Z,6.95
2019-05-09T05:07:18.080Z,7.45
2019-05-09T05:09:48.370Z,8.15
2019-05-09T05:12:18.532Z,8.03
2019-05-09T05:14:47.756Z,6.15
2019-05-09T05:17:18.039Z,6.47
2019-05-09T05:19:47.694Z,6.45
2019-05-09T05:22:21.259Z,6.30
2019-05-09T05:24:56.021Z,5.87
2019-05-09T05:27:24.992Z,7.47
2019-05-09T05:29:53.728Z,4.08
2019-05-09T05:32:24.200Z,8.10
2019-05-09T05:35:03.346Z,8.18
2019-05-09T05:37:32.097Z,5.40
2019-05-09T05:40:00.818Z,5.50
2019-05-09T05:42:29.504Z,6.78
2019-05-09T05:44:58.403Z,7.25
2019-05-09T05:47:29.407Z,7.50
2019-05-09T05:49:58.568Z,6.00
2019-05-09T05:52:27.755Z,6.65
2019-05-09T05:54:58.194Z,9.23
2019-05-09T05:57:28.010Z,8.40
2019-05-09T05:59:58.523Z,5.85
2019-05-09T06:02:28.102Z,6.30
2019-05-09T06:04:57.941Z,6.62
2019-05-09T06:07:28.443Z,8.00
2019-05-09T06:09:57.709Z,7.55
2019-05-09T06:12:27.666Z,4.45
2019-05-09T06:14:58.180Z,10.58
2019-05-09T06:17:28.586Z,11.28
2019-05-09T06:19:58.916Z,6.80
2019-05-09T06:22:27.675Z,6.72
2019-05-09T06:24:58.239Z,4.22
2019-05-09T06:27:27.479Z,8.13
2019-05-09T06:29:58.123Z,7.45
2019-05-09T06:32:27.946Z,7.30
2019-05-09T06:34:57.813Z,7.40
2019-05-09T06:37:27.686Z,8.68
2019-05-09T06:39:58.220Z,5.62
2019-05-09T06:42:28.581Z,7.40
2019-05-09T06:45:01.525Z,6.97
2019-05-09T06:47:34.693Z,13.10
2019-05-09T06:50:07.973Z,5.80
2019-05-09T06:52:37.551Z,11.40
2019-05-09T06:55:08.652Z,9.83
2019-05-09T06:57:42.261Z,7.17
2019-05-09T07:00:09.939Z,5.58
2019-05-09T07:02:40.350Z,8.28
2019-05-09T07:05:10.777Z,9.50
2019-05-09T07:07:41.080Z,5.95
2019-05-09T07:10:10.529Z,6.05
2019-05-09T07:12:39.187Z,8.05
2019-05-09T07:15:09.076Z,6.83
2019-05-09T07:17:38.733Z,10.45
2019-05-09T07:20:08.615Z,11.10
2019-05-09T07:22:39.523Z,9.93
2019-05-09T07:25:11.019Z,12.15
2019-05-09T07:27:43.988Z,7.42
2019-05-09T07:30:15.015Z,7.70
2019-05-09T07:32:51.254Z,7.92
2019-05-09T07:35:19.895Z,9.33
2019-05-09T07:37:48.898Z,7.22
2019-05-09T07:40:18.182Z,4.47
2019-05-09T07:42:48.035Z,8.78
2019-05-09T07:45:17.827Z,9.63
2019-05-09T07:47:47.836Z,6.97
2019-05-09T07:50:19.041Z,8.05
2019-05-09T07:52:47.821Z,11.28
2019-05-09T07:55:18.025Z,8.90
2019-05-09T07:57:54.638Z,6.75
2019-05-09T08:00:32.613Z,10.40
2019-05-09T08:03:01.407Z,6.87
2019-05-09T08:05:30.893Z,5.55
2019-05-09T08:07:59.616Z,5.30
2019-05-09T08:10:32.736Z,9.75
2019-05-09T08:12:58.810Z,10.85
2019-05-09T08:15:28.160Z,9.40
2019-05-09T08:17:59.154Z,7.40
2019-05-09T08:20:27.726Z,17.25
2019-05-09T08:23:01.501Z,7.78
2019-05-09T08:25:27.714Z,6.65
2019-05-09T08:27:58.775Z,12.15
2019-05-09T08:30:32.903Z,8.83
2019-05-09T08:32:59.766Z,7.10
2019-05-09T08:35:28.081Z,9.73
2019-05-09T08:37:58.328Z,10.13
2019-05-09T08:40:28.318Z,8.60
2019-05-09T08:42:58.737Z,8.55
2019-05-09T08:45:30.982Z,7.92
2019-05-09T08:47:58.297Z,12.30
2019-05-09T08:50:40.674Z,11.60
2019-05-09T08:53:09.391Z,9.73
2019-05-09T08:55:38.477Z,8.50
2019-05-09T08:58:07.950Z,13.48
2019-05-09T09:00:39.038Z,9.88
2019-05-09T09:03:08.037Z,13.00
2019-05-09T09:05:38.052Z,6.87
2019-05-09T09:08:08.365Z,12.35
2019-05-09T09:10:38.438Z,11.85
2019-05-09T09:13:08.894Z,7.17
2019-05-09T09:16:02.329Z,7.45
2019-05-09T09:18:08.744Z,6.37
2019-05-09T09:20:38.106Z,10.13
2019-05-09T09:23:08.949Z,5.55
2019-05-09T09:25:38.885Z,6.50
2019-05-09T09:28:08.708Z,8.13
2019-05-09T09:30:38.836Z,6.42
2019-05-09T09:33:11.277Z,7.30
2019-05-09T09:35:38.452Z,8.03
2019-05-09T09:38:09.387Z,10.20
2019-05-09T09:40:38.473Z,7.55
2019-05-09T09:43:09.093Z,7.17
2019-05-09T09:45:38.077Z,5.53
2019-05-09T09:48:09.051Z,6.28
2019-05-09T09:50:38.304Z,4.35
2019-05-09T09:53:08.797Z,4.45
2019-05-09T09:55:38.610Z,7.17
2019-05-09T09:58:08.154Z,3.85
2019-05-09T10:00:58.428Z,3.87
2019-05-09T10:03:27.849Z,7.72
2019-05-09T10:05:57.761Z,10.10
2019-05-09T10:08:26.637Z,4.87
2019-05-09T10:10:55.411Z,6.30
2019-05-09T10:13:24.054Z,6.25
2019-05-09T10:16:25.699Z,5.78
2019-05-09T10:18:45.111Z,5.35
2019-05-09T10:21:15.482Z,2.87
2019-05-09T10:23:44.137Z,6.40
2019-05-09T10:26:12.929Z,4.45
2019-05-09T10:28:45.298Z,6.12
2019-05-09T10:31:12.026Z,3.60
2019-05-09T10:33:40.672Z,3.00
2019-05-09T10:36:09.401Z,4.72
2019-05-09T10:38:38.791Z,5.30
2019-05-09T10:41:10.884Z,5.75
2019-05-09T10:43:54.871Z,3.75
2019-05-09T10:46:49.423Z,2.52
2019-05-09T10:49:08.953Z,2.20
2019-05-09T10:51:37.639Z,2.75
2019-05-09T10:54:08.146Z,2.08
2019-05-09T10:56:38.419Z,6.50
2019-05-09T10:59:07.830Z,2.50
2019-05-09T11:01:38.092Z,2.92
2019-05-09T11:04:08.278Z,3.87
2019-05-09T11:06:38.185Z,4.37
2019-05-09T11:09:09.573Z,4.97
2019-05-09T11:11:38.479Z,3.27
2019-05-09T11:14:08.545Z,2.95
2019-05-09T11:16:45.411Z,3.70
2019-05-09T11:19:08.203Z,4.70
2019-05-09T11:21:39.060Z,3.67
2019-05-09T11:24:08.568Z,4.20
2019-05-09T11:26:40.079Z,3.08
2019-05-09T11:29:09.436Z,4.83
2019-05-09T11:31:38.592Z,5.42
2019-05-09T11:34:09.009Z,2.30
2019-05-09T11:36:38.288Z,5.60
2019-05-09T11:41:02.093Z,3.87
2019-05-09T11:41:43.200Z,2.83
2019-05-09T11:44:11.863Z,3.77
2019-05-09T11:46:40.509Z,3.35
2019-05-09T11:49:09.555Z,4.25
2019-05-09T11:51:38.255Z,5.28
2019-05-09T11:54:09.982Z,5.58
2019-05-09T11:56:38.683Z,3.52
2019-05-09T11:59:07.942Z,3.70
2019-05-09T12:01:39.750Z,4.47
2019-05-09T12:04:09.237Z,4.17
2019-05-09T12:06:38.522Z,4.17
2019-05-09T12:09:09.463Z,6.00
2019-05-09T12:11:44.451Z,4.47
2019-05-09T12:14:14.261Z,5.75
2019-05-09T12:16:43.027Z,6.97
2019-05-09T12:19:11.716Z,6.35
2019-05-09T12:21:47.545Z,5.58
2019-05-09T12:24:11.123Z,3.98
2019-05-09T12:26:40.062Z,5.87
2019-05-09T12:29:09.217Z,4.53
2019-05-09T12:31:38.848Z,3.35
2019-05-09T12:34:09.046Z,5.03
2019-05-09T12:36:39.878Z,4.12
2019-05-09T12:39:09.298Z,5.60
2019-05-09T12:41:38.524Z,2.80
2019-05-09T12:44:08.823Z,2.55
2019-05-09T12:46:39.414Z,2.98
2019-05-09T12:49:09.097Z,3.00
2019-05-09T12:51:38.033Z,3.00
2019-05-09T12:54:08.483Z,3.20
2019-05-09T12:56:38.535Z,2.05
2019-05-09T12:59:08.786Z,3.95
2019-05-09T13:01:40.639Z,2.12
2019-05-09T13:04:09.759Z,2.35
2019-05-09T13:06:38.563Z,2.42
2019-05-09T13:09:08.375Z,2.95
2019-05-09T13:11:39.052Z,3.33
2019-05-09T13:14:10.040Z,2.95
2019-05-09T13:16:48.735Z,3.25
2019-05-09T13:19:14.514Z,3.60
2019-05-09T13:21:43.181Z,4.35
2019-05-09T13:24:12.040Z,2.98
2019-05-09T13:26:41.805Z,3.08
2019-05-09T13:29:10.709Z,4.20
2019-05-09T13:31:39.900Z,2.60
2019-05-09T13:34:08.562Z,3.47
2019-05-09T13:36:37.418Z,5.40
2019-05-09T13:39:09.607Z,6.55
2019-05-09T13:41:39.455Z,5.45
2019-05-09T13:44:13.449Z,7.78
2019-05-09T13:46:41.250Z,4.08
2019-05-09T13:49:14.766Z,3.00
2019-05-09T13:51:48.821Z,2.75
2019-05-09T13:54:10.739Z,5.08
2019-05-09T13:56:42.127Z,7.62
2019-05-09T13:59:10.865Z,3.80
2019-05-09T14:01:39.749Z,2.20
2019-05-09T14:04:08.505Z,2.50
2019-05-09T14:06:38.667Z,5.60
2019-05-09T14:09:10.947Z,3.17
2019-05-09T14:11:39.683Z,4.60
2019-05-09T14:14:08.323Z,3.52
2019-05-09T14:16:38.919Z,6.22
2019-05-09T14:19:25.974Z,5.00
2019-05-09T14:21:37.880Z,3.10
2019-05-09T14:24:14.843Z,4.70
2019-05-09T14:26:36.923Z,4.60
2019-05-09T14:29:05.719Z,3.87
2019-05-09T14:31:34.405Z,2.42
2019-05-09T14:34:03.063Z,3.55
2019-05-09T14:36:31.900Z,3.98
2019-05-09T14:39:00.561Z,4.12
2019-05-09T14:41:29.291Z,3.10
2019-05-09T14:43:59.819Z,4.65
2019-05-09T14:46:28.575Z,3.80
2019-05-09T14:48:58.462Z,4.67
2019-05-09T14:51:28.413Z,3.80
2019-05-09T14:53:59.373Z,4.87
2019-05-09T14:56:28.126Z,9.20
2019-05-09T14:58:58.107Z,8.68
2019-05-09T15:01:28.752Z,6.67
2019-05-09T15:04:00.438Z,4.62
2019-05-09T15:06:29.270Z,4.05
2019-05-09T15:08:58.345Z,5.92
2019-05-09T15:11:28.194Z,4.10
2019-05-09T15:13:58.532Z,5.25
2019-05-09T15:16:28.195Z,6.65
2019-05-09T15:18:58.464Z,3.62
2019-05-09T15:21:28.882Z,2.83
2019-05-09T15:23:58.681Z,3.90
2019-05-09T15:26:28.245Z,4.37
2019-05-09T15:28:57.871Z,4.20
2019-05-09T15:31:31.403Z,4.95
2019-05-09T15:36:28.150Z,5.50
2019-05-09T15:38:59.132Z,4.40
2019-05-09T15:41:27.768Z,7.00
2019-05-09T15:43:57.958Z,5.58
2019-05-09T15:46:38.905Z,5.22
2019-05-09T15:49:07.771Z,4.92
2019-05-09T15:51:38.469Z,4.50
2019-05-09T15:54:08.259Z,5.00
2019-05-09T15:56:38.786Z,5.65
2019-05-09T15:59:07.444Z,7.00
2019-05-09T16:01:38.567Z,7.30
2019-05-09T16:04:08.579Z,6.67
2019-05-09T16:06:39.184Z,5.55
2019-05-09T16:09:11.330Z,6.45
2019-05-09T16:11:37.811Z,5.97
2019-05-09T16:14:07.538Z,5.30
2019-05-09T16:16:38.525Z,6.17
2019-05-09T16:19:08.871Z,6.62
2019-05-09T16:21:38.283Z,6.22
2019-05-09T16:24:08.125Z,5.55
2019-05-09T16:26:38.268Z,5.35
2019-05-09T16:29:08.482Z,5.87
2019-05-09T16:31:38.774Z,5.47
2019-05-09T16:34:09.453Z,7.08
2019-05-09T16:36:38.963Z,5.22
2019-05-09T16:39:08.230Z,5.53
2019-05-09T16:41:39.359Z,8.38
2019-05-09T16:44:07.839Z,5.28
2019-05-09T16:46:37.646Z,5.75
2019-05-09T16:49:11.329Z,7.20
2019-05-09T16:51:37.938Z,5.28
2019-05-09T16:54:07.527Z,8.95
2019-05-09T16:56:38.097Z,6.97
2019-05-09T16:59:08.351Z,5.83
2019-05-09T17:01:39.662Z,6.33
2019-05-09T17:04:08.632Z,7.58
2019-05-09T17:06:38.085Z,5.92
2019-05-09T17:09:10.188Z,7.28
2019-05-09T17:11:39.461Z,6.87
2019-05-09T17:14:08.430Z,7.20
2019-05-09T17:16:37.737Z,7.65
2019-05-09T17:19:06.691Z,8.20
2019-05-09T17:21:37.670Z,7.35
2019-05-09T17:24:13.923Z,9.70
2019-05-09T17:26:42.710Z,9.70
2019-05-09T17:29:11.513Z,9.68
2019-05-09T17:31:40.303Z,12.43
2019-05-09T17:34:09.034Z,12.35
2019-05-09T17:36:38.534Z,12.55
2019-05-09T17:39:08.077Z,12.37
2019-05-09T17:41:37.921Z,15.45
2019-05-09T17:44:07.648Z,18.40
2019-05-09T17:46:38.563Z,14.53
2019-05-09T17:49:08.289Z,12.90
2019-05-09T17:51:37.272Z,13.55
2019-05-09T17:54:08.088Z,16.85
2019-05-09T17:56:37.923Z,14.75
2019-05-09T17:59:08.496Z,15.68
2019-05-09T18:01:37.602Z,15.58
2019-05-09T18:04:08.867Z,16.62
2019-05-09T18:06:37.957Z,15.32
2019-05-09T18:09:08.486Z,14.00
2019-05-09T18:11:37.790Z,15.65
2019-05-09T18:14:08.175Z,15.45
2019-05-09T18:16:38.918Z,17.90
2019-05-09T18:19:08.423Z,17.45
2019-05-09T18:21:50.305Z,19.87
2019-05-09T18:24:09.099Z,13.80
2019-05-09T18:26:38.339Z,15.83
2019-05-09T18:29:07.263Z,18.75
2019-05-09T18:31:37.703Z,16.65
2019-05-09T18:34:07.774Z,18.80
2019-05-09T18:36:38.228Z,17.67
2019-05-09T18:39:07.741Z,18.27
2019-05-09T18:41:36.704Z,21.55
2019-05-09T18:44:07.356Z,21.48
2019-05-09T18:46:35.742Z,17.42
2019-05-09T18:49:04.541Z,16.97
2019-05-09T18:51:33.208Z,19.20
2019-05-09T18:54:01.865Z,23.27
2019-05-09T18:56:30.529Z,18.15
2019-05-09T18:58:59.282Z,20.75
2019-05-09T19:01:27.926Z,23.65
2019-05-09T19:03:56.593Z,22.30
2019-05-09T19:06:25.244Z,16.97
2019-05-09T19:08:53.912Z,20.02
2019-05-09T19:11:22.594Z,19.05
2019-05-09T19:13:51.278Z,23.10
2019-05-09T19:16:30.575Z,21.73
2019-05-09T19:19:00.910Z,22.45
2019-05-09T19:21:46.854Z,21.77
2019-05-09T19:24:15.591Z,20.75
2019-05-09T19:26:44.238Z,21.50
2019-05-09T19:29:12.903Z,24.25
2019-05-09T19:31:41.683Z,19.85
2019-05-09T19:34:10.459Z,23.65
2019-05-09T19:36:39.264Z,26.42
2019-05-09T19:39:09.358Z,24.50
2019-05-09T19:41:38.092Z,20.00
2019-05-09T19:44:06.888Z,18.20
2019-05-09T19:46:35.728Z,21.93
2019-05-09T19:49:04.721Z,23.83
2019-05-09T19:51:33.399Z,17.35
2019-05-09T19:54:02.056Z,18.40
2019-05-09T19:56:30.734Z,19.85
2019-05-09T19:58:59.382Z,17.52
2019-05-09T20:01:28.059Z,16.15
2019-05-09T20:03:56.723Z,20.32
2019-05-09T20:06:25.530Z,16.10
2019-05-09T20:08:54.181Z,17.60
2019-05-09T20:11:40.867Z,16.93
2019-05-09T20:14:11.234Z,19.32
2019-05-09T20:16:47.058Z,17.57
2019-05-09T20:19:15.757Z,26.07
2019-05-09T20:21:44.525Z,17.85
2019-05-09T20:24:13.264Z,22.50
2019-05-09T20:26:41.947Z,19.07
2019-05-09T20:29:10.585Z,22.37
2019-05-09T20:31:39.243Z,19.10
2019-05-09T20:34:07.982Z,19.17
2019-05-09T20:36:36.613Z,22.90
2019-05-09T20:39:07.256Z,24.50
2019-05-09T20:41:37.247Z,20.43
2019-05-09T20:44:06.200Z,20.40
2019-05-09T20:46:35.056Z,18.17
2019-05-09T20:49:03.949Z,20.97
2019-05-09T20:51:33.009Z,19.67
2019-05-09T20:54:01.969Z,22.48
2019-05-09T20:56:30.770Z,21.52
2019-05-09T20:58:59.751Z,22.32
2019-05-09T21:01:28.622Z,19.10
2019-05-09T21:04:00.303Z,24.72
2019-05-09T21:06:28.023Z,21.30
2019-05-09T21:08:56.864Z,20.77
2019-05-09T21:11:25.778Z,20.50
2019-05-09T21:13:54.620Z,21.25
2019-05-09T21:16:23.529Z,19.82
2019-05-09T21:18:52.440Z,22.07
2019-05-09T21:21:21.282Z,18.32
2019-05-09T21:23:50.116Z,18.00
2019-05-09T21:26:19.083Z,21.17
2019-05-09T21:28:48.001Z,16.93
2019-05-09T21:31:16.973Z,21.15
2019-05-09T21:33:45.827Z,20.40
2019-05-09T21:36:14.563Z,24.50
2019-05-09T21:38:43.230Z,20.15
2019-05-09T21:41:11.887Z,20.50
2019-05-09T21:43:41.923Z,18.27
2019-05-09T21:46:10.572Z,21.75
2019-05-09T21:48:39.235Z,19.87
2019-05-09T21:51:07.962Z,19.27
2019-05-09T21:53:40.866Z,20.65
2019-05-09T21:56:07.006Z,18.92
2019-05-09T21:58:35.703Z,21.27
2019-05-09T22:01:05.758Z,21.65
2019-05-09T22:03:35.820Z,21.52
2019-05-09T22:06:04.605Z,18.73
2019-05-09T22:08:35.223Z,21.20
2019-05-09T22:11:04.009Z,26.02
2019-05-09T22:13:32.750Z,22.05
2019-05-09T22:16:01.409Z,19.23
2019-05-09T22:18:30.178Z,21.20
2019-05-09T22:20:58.898Z,17.92
2019-05-09T22:23:27.559Z,20.90
2019-05-09T22:25:56.208Z,21.35
2019-05-09T22:28:24.874Z,19.17
2019-05-09T22:30:53.526Z,20.30
2019-05-09T22:33:22.190Z,17.77
2019-05-09T22:35:50.835Z,19.02
2019-05-09T22:38:19.501Z,18.65
2019-05-09T22:40:48.239Z,19.23
2019-05-09T22:43:16.957Z,18.20
2019-05-09T22:45:45.691Z,23.80
2019-05-09T22:48:14.350Z,17.10
2019-05-09T22:50:43.009Z,20.50
2019-05-09T22:53:11.735Z,19.27
2019-05-09T22:55:40.464Z,18.95
2019-05-09T22:58:09.122Z,18.48
2019-05-09T23:00:37.786Z,22.30
2019-05-09T23:03:06.447Z,22.07
2019-05-09T23:05:35.109Z,19.65
2019-05-09T23:08:03.837Z,20.25
2019-05-09T23:10:32.501Z,21.12
2019-05-09T23:13:01.152Z,16.95
2019-05-09T23:15:29.823Z,20.15
2019-05-09T23:17:58.559Z,19.05
2019-05-09T23:20:43.857Z,16.12
2019-05-09T23:23:23.116Z,17.62
2019-05-09T23:25:51.865Z,21.85
2019-05-09T23:28:20.507Z,20.00
2019-05-09T23:30:50.867Z,22.75
2019-05-09T23:33:20.208Z,23.57
2019-05-09T23:35:48.857Z,31.93
2019-05-09T23:38:17.525Z,25.48
2019-05-09T23:40:46.246Z,26.82
2019-05-09T23:43:14.918Z,25.77
2019-05-09T23:45:43.569Z,27.98
2019-05-09T23:48:12.238Z,27.45
2019-05-09T23:50:40.892Z,28.35
2019-05-09T23:53:12.413Z,30.85
2019-05-09T23:55:58.789Z,29.12
2019-05-09T23:58:45.254Z,31.33
